sensor_id;sensor_type;location;lat;lon;timestamp;P1;durP1;ratioP1;P2;durP2;ratioP2
55732;SDS011;41637;52.364;9.910;2023-07-31T00:01:36;5.20;;;1.60;;
55732;SDS011;41637;52.364;9.910;2023-07-31T00:04:03;5.40;;;1.40;;
55732;SDS011;41637;52.364;9.910;2023-07-31T00:06:30;4.10;;;1.40;;
55732;SDS011;41637;52.364;9.910;2023-07-31T00:08:57;4.80;;;1.50;;
55732;SDS011;41637;52.364;9.910;2023-07-31T00:11:24;3.10;;;1.40;;
55732;SDS011;41637;52.364;9.910;2023-07-31T00:13:52;4.40;;;1.60;;
55732;SDS011;41637;52.364;9.910;2023-07-31T00:16:20;3.80;;;1.50;;
55732;SDS011;41637;52.364;9.910;2023-07-31T00:18:47;4.60;;;1.40;;
55732;SDS011;41637;52.364;9.910;2023-07-31T00:21:13;4.30;;;1.40;;
55732;SDS011;41637;52.364;9.910;2023-07-31T00:23:40;2.80;;;1.40;;
55732;SDS011;41637;52.364;9.910;2023-07-31T00:26:07;3.70;;;1.70;;
55732;SDS011;41637;52.364;9.910;2023-07-31T00:28:34;4.20;;;1.70;;
55732;SDS011;41637;52.364;9.910;2023-07-31T00:31:00;3.90;;;1.50;;
55732;SDS011;41637;52.364;9.910;2023-07-31T00:33:29;4.10;;;1.30;;
55732;SDS011;41637;52.364;9.910;2023-07-31T00:35:57;4.10;;;1.50;;
55732;SDS011;41637;52.364;9.910;2023-07-31T00:38:24;3.70;;;1.60;;
55732;SDS011;41637;52.364;9.910;2023-07-31T00:40:51;3.50;;;1.40;;
55732;SDS011;41637;52.364;9.910;2023-07-31T00:43:18;4.60;;;1.50;;
55732;SDS011;41637;52.364;9.910;2023-07-31T00:45:45;3.50;;;1.50;;
55732;SDS011;41637;52.364;9.910;2023-07-31T00:48:12;5.00;;;1.50;;
55732;SDS011;41637;52.364;9.910;2023-07-31T00:50:38;3.40;;;1.40;;
55732;SDS011;41637;52.364;9.910;2023-07-31T00:53:06;3.50;;;1.40;;
55732;SDS011;41637;52.364;9.910;2023-07-31T00:55:33;4.60;;;1.50;;
55732;SDS011;41637;52.364;9.910;2023-07-31T00:58:00;4.50;;;1.50;;
55732;SDS011;41637;52.364;9.910;2023-07-31T01:00:27;4.00;;;1.50;;
55732;SDS011;41637;52.364;9.910;2023-07-31T01:02:54;3.50;;;1.40;;
55732;SDS011;41637;52.364;9.910;2023-07-31T01:05:24;4.60;;;1.40;;
55732;SDS011;41637;52.364;9.910;2023-07-31T01:11:02;3.00;;;1.40;;
55732;SDS011;41637;52.364;9.910;2023-07-31T01:13:58;3.70;;;1.60;;
55732;SDS011;41637;52.364;9.910;2023-07-31T01:16:26;3.90;;;1.40;;
55732;SDS011;41637;52.364;9.910;2023-07-31T01:18:53;3.90;;;1.60;;
55732;SDS011;41637;52.364;9.910;2023-07-31T01:26:44;3.80;;;1.60;;
55732;SDS011;41637;52.364;9.910;2023-07-31T01:29:38;3.30;;;1.40;;
55732;SDS011;41637;52.364;9.910;2023-07-31T01:32:13;4.50;;;1.40;;
55732;SDS011;41637;52.364;9.910;2023-07-31T01:34:41;3.60;;;1.30;;
55732;SDS011;41637;52.364;9.910;2023-07-31T01:37:08;3.70;;;1.30;;
55732;SDS011;41637;52.364;9.910;2023-07-31T01:39:35;2.80;;;1.30;;
55732;SDS011;41637;52.364;9.910;2023-07-31T01:42:02;3.30;;;1.20;;
55732;SDS011;41637;52.364;9.910;2023-07-31T01:44:29;3.30;;;1.50;;
55732;SDS011;41637;52.364;9.910;2023-07-31T01:46:57;4.20;;;1.30;;
55732;SDS011;41637;52.364;9.910;2023-07-31T01:49:26;3.70;;;1.40;;
55732;SDS011;41637;52.364;9.910;2023-07-31T01:51:53;2.60;;;1.40;;
55732;SDS011;41637;52.364;9.910;2023-07-31T01:54:20;3.70;;;1.20;;
55732;SDS011;41637;52.364;9.910;2023-07-31T01:56:46;3.30;;;1.20;;
55732;SDS011;41637;52.364;9.910;2023-07-31T01:59:13;3.60;;;1.40;;
55732;SDS011;41637;52.364;9.910;2023-07-31T02:01:40;2.70;;;1.10;;
55732;SDS011;41637;52.364;9.910;2023-07-31T02:04:07;3.60;;;1.20;;
55732;SDS011;41637;52.364;9.910;2023-07-31T02:06:33;2.80;;;1.10;;
55732;SDS011;41637;52.364;9.910;2023-07-31T02:09:01;2.10;;;0.90;;
55732;SDS011;41637;52.364;9.910;2023-07-31T02:11:28;2.80;;;1.00;;
55732;SDS011;41637;52.364;9.910;2023-07-31T02:13:55;2.40;;;1.00;;
55732;SDS011;41637;52.364;9.910;2023-07-31T02:16:22;3.40;;;1.10;;
55732;SDS011;41637;52.364;9.910;2023-07-31T02:18:49;4.10;;;1.20;;
55732;SDS011;41637;52.364;9.910;2023-07-31T02:21:15;1.90;;;0.90;;
55732;SDS011;41637;52.364;9.910;2023-07-31T02:23:42;1.90;;;0.80;;
55732;SDS011;41637;52.364;9.910;2023-07-31T02:26:09;2.00;;;0.80;;
55732;SDS011;41637;52.364;9.910;2023-07-31T02:28:36;2.90;;;0.80;;
55732;SDS011;41637;52.364;9.910;2023-07-31T02:31:03;1.60;;;0.70;;
55732;SDS011;41637;52.364;9.910;2023-07-31T02:33:30;2.00;;;0.80;;
55732;SDS011;41637;52.364;9.910;2023-07-31T02:35:57;2.50;;;1.00;;
55732;SDS011;41637;52.364;9.910;2023-07-31T02:38:24;2.10;;;0.90;;
55732;SDS011;41637;52.364;9.910;2023-07-31T02:40:50;2.50;;;0.70;;
55732;SDS011;41637;52.364;9.910;2023-07-31T02:43:17;3.00;;;0.70;;
55732;SDS011;41637;52.364;9.910;2023-07-31T02:45:44;1.40;;;0.40;;
55732;SDS011;41637;52.364;9.910;2023-07-31T02:48:11;2.10;;;0.70;;
55732;SDS011;41637;52.364;9.910;2023-07-31T02:50:38;1.70;;;0.60;;
55732;SDS011;41637;52.364;9.910;2023-07-31T02:53:05;2.40;;;0.60;;
55732;SDS011;41637;52.364;9.910;2023-07-31T02:55:32;2.20;;;0.60;;
55732;SDS011;41637;52.364;9.910;2023-07-31T02:57:58;1.30;;;0.60;;
55732;SDS011;41637;52.364;9.910;2023-07-31T03:00:25;1.70;;;0.70;;
55732;SDS011;41637;52.364;9.910;2023-07-31T03:02:52;2.20;;;0.60;;
55732;SDS011;41637;52.364;9.910;2023-07-31T03:05:19;3.10;;;0.70;;
55732;SDS011;41637;52.364;9.910;2023-07-31T03:07:46;1.40;;;0.60;;
55732;SDS011;41637;52.364;9.910;2023-07-31T03:10:13;1.70;;;0.70;;
55732;SDS011;41637;52.364;9.910;2023-07-31T03:12:40;1.90;;;1.00;;
55732;SDS011;41637;52.364;9.910;2023-07-31T03:15:07;3.90;;;0.90;;
55732;SDS011;41637;52.364;9.910;2023-07-31T03:17:34;2.00;;;0.80;;
55732;SDS011;41637;52.364;9.910;2023-07-31T03:20:01;2.50;;;0.90;;
55732;SDS011;41637;52.364;9.910;2023-07-31T03:22:28;2.10;;;0.80;;
55732;SDS011;41637;52.364;9.910;2023-07-31T03:24:55;2.60;;;0.80;;
55732;SDS011;41637;52.364;9.910;2023-07-31T03:27:22;1.70;;;0.70;;
55732;SDS011;41637;52.364;9.910;2023-07-31T03:29:49;1.60;;;0.70;;
55732;SDS011;41637;52.364;9.910;2023-07-31T03:32:17;1.50;;;0.80;;
55732;SDS011;41637;52.364;9.910;2023-07-31T03:34:44;2.10;;;0.70;;
55732;SDS011;41637;52.364;9.910;2023-07-31T03:37:11;3.10;;;1.10;;
55732;SDS011;41637;52.364;9.910;2023-07-31T03:39:38;3.40;;;0.90;;
55732;SDS011;41637;52.364;9.910;2023-07-31T03:42:05;3.00;;;1.00;;
55732;SDS011;41637;52.364;9.910;2023-07-31T03:44:32;2.00;;;0.80;;
55732;SDS011;41637;52.364;9.910;2023-07-31T03:46:59;3.50;;;1.10;;
55732;SDS011;41637;52.364;9.910;2023-07-31T03:49:26;1.60;;;0.90;;
55732;SDS011;41637;52.364;9.910;2023-07-31T03:51:53;2.40;;;0.80;;
55732;SDS011;41637;52.364;9.910;2023-07-31T03:54:20;2.60;;;0.90;;
55732;SDS011;41637;52.364;9.910;2023-07-31T03:56:47;2.10;;;0.90;;
55732;SDS011;41637;52.364;9.910;2023-07-31T03:59:14;2.30;;;1.00;;
55732;SDS011;41637;52.364;9.910;2023-07-31T04:01:40;2.50;;;0.80;;
55732;SDS011;41637;52.364;9.910;2023-07-31T04:04:07;1.90;;;0.90;;
55732;SDS011;41637;52.364;9.910;2023-07-31T04:06:34;2.10;;;1.00;;
55732;SDS011;41637;52.364;9.910;2023-07-31T04:09:01;2.90;;;1.10;;
55732;SDS011;41637;52.364;9.910;2023-07-31T04:11:29;4.00;;;1.10;;
55732;SDS011;41637;52.364;9.910;2023-07-31T04:13:56;2.40;;;1.10;;
55732;SDS011;41637;52.364;9.910;2023-07-31T04:16:22;1.60;;;0.80;;
55732;SDS011;41637;52.364;9.910;2023-07-31T04:18:49;2.40;;;1.00;;
55732;SDS011;41637;52.364;9.910;2023-07-31T04:21:16;2.30;;;0.90;;
55732;SDS011;41637;52.364;9.910;2023-07-31T04:23:44;3.70;;;1.20;;
55732;SDS011;41637;52.364;9.910;2023-07-31T04:26:10;3.10;;;1.00;;
55732;SDS011;41637;52.364;9.910;2023-07-31T04:28:37;2.60;;;1.00;;
55732;SDS011;41637;52.364;9.910;2023-07-31T04:31:04;3.20;;;1.30;;
55732;SDS011;41637;52.364;9.910;2023-07-31T04:33:31;3.50;;;1.30;;
55732;SDS011;41637;52.364;9.910;2023-07-31T04:35:59;2.80;;;1.00;;
55732;SDS011;41637;52.364;9.910;2023-07-31T04:38:26;3.00;;;1.10;;
55732;SDS011;41637;52.364;9.910;2023-07-31T04:40:53;2.00;;;1.20;;
55732;SDS011;41637;52.364;9.910;2023-07-31T04:43:20;2.20;;;1.10;;
55732;SDS011;41637;52.364;9.910;2023-07-31T04:45:47;2.40;;;1.00;;
55732;SDS011;41637;52.364;9.910;2023-07-31T04:48:16;2.40;;;1.10;;
55732;SDS011;41637;52.364;9.910;2023-07-31T04:50:43;2.60;;;1.10;;
55732;SDS011;41637;52.364;9.910;2023-07-31T04:53:10;2.10;;;0.90;;
55732;SDS011;41637;52.364;9.910;2023-07-31T04:55:37;1.90;;;1.00;;
55732;SDS011;41637;52.364;9.910;2023-07-31T04:58:03;2.20;;;1.10;;
55732;SDS011;41637;52.364;9.910;2023-07-31T05:00:31;2.60;;;0.80;;
55732;SDS011;41637;52.364;9.910;2023-07-31T05:02:58;2.60;;;0.90;;
55732;SDS011;41637;52.364;9.910;2023-07-31T05:05:24;3.00;;;1.00;;
55732;SDS011;41637;52.364;9.910;2023-07-31T05:07:51;1.50;;;0.70;;
55732;SDS011;41637;52.364;9.910;2023-07-31T05:10:18;1.90;;;0.90;;
55732;SDS011;41637;52.364;9.910;2023-07-31T05:12:44;1.70;;;0.70;;
55732;SDS011;41637;52.364;9.910;2023-07-31T05:15:11;2.00;;;0.70;;
55732;SDS011;41637;52.364;9.910;2023-07-31T05:17:38;1.30;;;0.60;;
55732;SDS011;41637;52.364;9.910;2023-07-31T05:20:05;2.10;;;0.80;;
55732;SDS011;41637;52.364;9.910;2023-07-31T05:22:33;1.90;;;0.90;;
55732;SDS011;41637;52.364;9.910;2023-07-31T05:25:00;2.00;;;0.90;;
55732;SDS011;41637;52.364;9.910;2023-07-31T05:27:27;2.20;;;0.90;;
55732;SDS011;41637;52.364;9.910;2023-07-31T05:29:54;1.70;;;0.70;;
55732;SDS011;41637;52.364;9.910;2023-07-31T05:32:20;1.70;;;0.60;;
55732;SDS011;41637;52.364;9.910;2023-07-31T05:34:50;2.50;;;0.80;;
55732;SDS011;41637;52.364;9.910;2023-07-31T05:37:18;2.00;;;0.90;;
55732;SDS011;41637;52.364;9.910;2023-07-31T05:39:45;2.30;;;1.10;;
55732;SDS011;41637;52.364;9.910;2023-07-31T05:42:12;2.40;;;1.30;;
55732;SDS011;41637;52.364;9.910;2023-07-31T05:44:39;3.40;;;1.70;;
55732;SDS011;41637;52.364;9.910;2023-07-31T05:47:06;3.60;;;1.80;;
55732;SDS011;41637;52.364;9.910;2023-07-31T05:49:33;4.70;;;2.30;;
55732;SDS011;41637;52.364;9.910;2023-07-31T05:52:00;5.10;;;2.50;;
55732;SDS011;41637;52.364;9.910;2023-07-31T05:54:27;4.80;;;2.90;;
55732;SDS011;41637;52.364;9.910;2023-07-31T05:56:53;4.70;;;3.00;;
55732;SDS011;41637;52.364;9.910;2023-07-31T05:59:20;5.60;;;3.20;;
55732;SDS011;41637;52.364;9.910;2023-07-31T06:01:47;5.40;;;3.70;;
55732;SDS011;41637;52.364;9.910;2023-07-31T06:04:14;8.20;;;4.40;;
55732;SDS011;41637;52.364;9.910;2023-07-31T06:06:41;6.50;;;4.70;;
55732;SDS011;41637;52.364;9.910;2023-07-31T06:09:08;7.40;;;5.00;;
55732;SDS011;41637;52.364;9.910;2023-07-31T06:11:35;9.30;;;5.70;;
55732;SDS011;41637;52.364;9.910;2023-07-31T06:14:01;9.30;;;6.10;;
55732;SDS011;41637;52.364;9.910;2023-07-31T06:16:28;9.10;;;6.00;;
55732;SDS011;41637;52.364;9.910;2023-07-31T06:18:55;9.60;;;6.20;;
55732;SDS011;41637;52.364;9.910;2023-07-31T06:21:22;10.50;;;6.50;;
55732;SDS011;41637;52.364;9.910;2023-07-31T06:23:49;10.60;;;6.70;;
55732;SDS011;41637;52.364;9.910;2023-07-31T06:26:15;9.50;;;6.70;;
55732;SDS011;41637;52.364;9.910;2023-07-31T06:28:42;8.70;;;5.60;;
55732;SDS011;41637;52.364;9.910;2023-07-31T06:31:09;10.90;;;6.50;;
55732;SDS011;41637;52.364;9.910;2023-07-31T06:33:36;9.00;;;6.00;;
55732;SDS011;41637;52.364;9.910;2023-07-31T06:36:03;11.40;;;6.90;;
55732;SDS011;41637;52.364;9.910;2023-07-31T06:38:30;11.30;;;6.40;;
55732;SDS011;41637;52.364;9.910;2023-07-31T06:40:57;7.40;;;5.40;;
55732;SDS011;41637;52.364;9.910;2023-07-31T06:43:24;9.30;;;6.10;;
55732;SDS011;41637;52.364;9.910;2023-07-31T06:45:54;7.20;;;5.00;;
55732;SDS011;41637;52.364;9.910;2023-07-31T06:48:21;11.30;;;5.60;;
55732;SDS011;41637;52.364;9.910;2023-07-31T06:50:47;8.30;;;5.60;;
55732;SDS011;41637;52.364;9.910;2023-07-31T06:53:14;12.30;;;6.40;;
55732;SDS011;41637;52.364;9.910;2023-07-31T06:55:41;9.60;;;5.70;;
55732;SDS011;41637;52.364;9.910;2023-07-31T06:58:08;9.70;;;5.70;;
55732;SDS011;41637;52.364;9.910;2023-07-31T07:00:35;9.10;;;6.30;;
55732;SDS011;41637;52.364;9.910;2023-07-31T07:03:02;10.90;;;6.90;;
55732;SDS011;41637;52.364;9.910;2023-07-31T07:05:29;10.80;;;7.30;;
55732;SDS011;41637;52.364;9.910;2023-07-31T07:07:56;11.10;;;7.50;;
55732;SDS011;41637;52.364;9.910;2023-07-31T07:10:22;11.80;;;6.90;;
55732;SDS011;41637;52.364;9.910;2023-07-31T07:12:49;11.40;;;7.90;;
55732;SDS011;41637;52.364;9.910;2023-07-31T07:15:16;10.70;;;7.40;;
55732;SDS011;41637;52.364;9.910;2023-07-31T07:17:43;11.50;;;7.80;;
55732;SDS011;41637;52.364;9.910;2023-07-31T07:20:11;14.90;;;8.10;;
55732;SDS011;41637;52.364;9.910;2023-07-31T07:22:38;12.70;;;7.90;;
55732;SDS011;41637;52.364;9.910;2023-07-31T07:25:04;13.60;;;8.90;;
55732;SDS011;41637;52.364;9.910;2023-07-31T07:27:33;16.30;;;9.40;;
55732;SDS011;41637;52.364;9.910;2023-07-31T07:30:00;13.40;;;9.90;;
55732;SDS011;41637;52.364;9.910;2023-07-31T07:32:27;15.70;;;9.50;;
55732;SDS011;41637;52.364;9.910;2023-07-31T07:34:55;15.20;;;9.60;;
55732;SDS011;41637;52.364;9.910;2023-07-31T07:37:22;13.70;;;9.50;;
55732;SDS011;41637;52.364;9.910;2023-07-31T07:39:49;16.70;;;9.80;;
55732;SDS011;41637;52.364;9.910;2023-07-31T07:42:16;17.90;;;9.80;;
55732;SDS011;41637;52.364;9.910;2023-07-31T07:44:43;17.10;;;10.40;;
55732;SDS011;41637;52.364;9.910;2023-07-31T07:47:10;13.60;;;10.10;;
55732;SDS011;41637;52.364;9.910;2023-07-31T07:49:37;15.90;;;9.90;;
55732;SDS011;41637;52.364;9.910;2023-07-31T07:52:04;13.40;;;9.10;;
55732;SDS011;41637;52.364;9.910;2023-07-31T07:54:31;14.00;;;9.70;;
55732;SDS011;41637;52.364;9.910;2023-07-31T07:56:58;14.20;;;9.30;;
55732;SDS011;41637;52.364;9.910;2023-07-31T07:59:25;15.50;;;9.30;;
55732;SDS011;41637;52.364;9.910;2023-07-31T08:01:52;16.90;;;9.30;;
55732;SDS011;41637;52.364;9.910;2023-07-31T08:04:19;14.80;;;9.10;;
55732;SDS011;41637;52.364;9.910;2023-07-31T08:06:46;14.60;;;9.10;;
55732;SDS011;41637;52.364;9.910;2023-07-31T08:09:13;15.50;;;8.40;;
55732;SDS011;41637;52.364;9.910;2023-07-31T08:11:40;13.50;;;7.90;;
55732;SDS011;41637;52.364;9.910;2023-07-31T08:14:06;13.70;;;8.30;;
55732;SDS011;41637;52.364;9.910;2023-07-31T08:16:33;10.90;;;6.50;;
55732;SDS011;41637;52.364;9.910;2023-07-31T08:19:00;11.80;;;7.00;;
55732;SDS011;41637;52.364;9.910;2023-07-31T08:21:27;10.80;;;6.20;;
55732;SDS011;41637;52.364;9.910;2023-07-31T08:23:54;9.30;;;5.50;;
55732;SDS011;41637;52.364;9.910;2023-07-31T08:26:21;10.80;;;5.50;;
55732;SDS011;41637;52.364;9.910;2023-07-31T08:28:47;10.00;;;5.70;;
55732;SDS011;41637;52.364;9.910;2023-07-31T08:31:14;10.60;;;5.60;;
55732;SDS011;41637;52.364;9.910;2023-07-31T08:33:41;11.60;;;5.60;;
55732;SDS011;41637;52.364;9.910;2023-07-31T08:36:07;7.10;;;4.70;;
55732;SDS011;41637;52.364;9.910;2023-07-31T08:38:34;6.40;;;4.60;;
55732;SDS011;41637;52.364;9.910;2023-07-31T08:41:04;9.80;;;4.90;;
55732;SDS011;41637;52.364;9.910;2023-07-31T08:43:31;8.80;;;4.40;;
55732;SDS011;41637;52.364;9.910;2023-07-31T08:45:59;8.70;;;5.10;;
55732;SDS011;41637;52.364;9.910;2023-07-31T08:48:27;8.30;;;4.70;;
55732;SDS011;41637;52.364;9.910;2023-07-31T08:50:55;9.40;;;5.40;;
55732;SDS011;41637;52.364;9.910;2023-07-31T08:53:22;9.90;;;4.70;;
55732;SDS011;41637;52.364;9.910;2023-07-31T08:55:49;10.60;;;5.20;;
55732;SDS011;41637;52.364;9.910;2023-07-31T08:58:19;9.60;;;5.30;;
55732;SDS011;41637;52.364;9.910;2023-07-31T09:00:46;10.60;;;5.50;;
55732;SDS011;41637;52.364;9.910;2023-07-31T09:03:14;9.80;;;5.80;;
55732;SDS011;41637;52.364;9.910;2023-07-31T09:05:43;10.80;;;5.40;;
55732;SDS011;41637;52.364;9.910;2023-07-31T09:08:14;10.50;;;5.30;;
55732;SDS011;41637;52.364;9.910;2023-07-31T09:10:45;10.60;;;5.20;;
55732;SDS011;41637;52.364;9.910;2023-07-31T09:13:14;9.60;;;4.70;;
55732;SDS011;41637;52.364;9.910;2023-07-31T09:15:42;9.90;;;4.90;;
55732;SDS011;41637;52.364;9.910;2023-07-31T09:18:10;10.20;;;4.80;;
55732;SDS011;41637;52.364;9.910;2023-07-31T09:20:37;9.60;;;4.60;;
55732;SDS011;41637;52.364;9.910;2023-07-31T09:23:05;13.10;;;4.40;;
55732;SDS011;41637;52.364;9.910;2023-07-31T09:25:33;7.90;;;4.10;;
55732;SDS011;41637;52.364;9.910;2023-07-31T09:28:00;7.90;;;4.70;;
55732;SDS011;41637;52.364;9.910;2023-07-31T09:30:29;7.90;;;4.40;;
55732;SDS011;41637;52.364;9.910;2023-07-31T09:33:05;8.50;;;4.00;;
55732;SDS011;41637;52.364;9.910;2023-07-31T09:35:34;6.70;;;3.70;;
55732;SDS011;41637;52.364;9.910;2023-07-31T09:38:04;8.40;;;3.70;;
55732;SDS011;41637;52.364;9.910;2023-07-31T09:40:33;6.20;;;3.50;;
55732;SDS011;41637;52.364;9.910;2023-07-31T09:43:05;6.00;;;3.20;;
55732;SDS011;41637;52.364;9.910;2023-07-31T09:45:34;6.00;;;3.40;;
55732;SDS011;41637;52.364;9.910;2023-07-31T09:48:10;5.40;;;3.10;;
55732;SDS011;41637;52.364;9.910;2023-07-31T09:50:45;6.10;;;3.10;;
55732;SDS011;41637;52.364;9.910;2023-07-31T09:53:16;5.40;;;2.90;;
55732;SDS011;41637;52.364;9.910;2023-07-31T09:55:43;4.30;;;2.50;;
55732;SDS011;41637;52.364;9.910;2023-07-31T09:58:10;3.90;;;2.20;;
55732;SDS011;41637;52.364;9.910;2023-07-31T10:00:39;4.60;;;2.90;;
55732;SDS011;41637;52.364;9.910;2023-07-31T10:03:06;4.30;;;2.30;;
55732;SDS011;41637;52.364;9.910;2023-07-31T10:05:39;4.40;;;2.20;;
55732;SDS011;41637;52.364;9.910;2023-07-31T10:08:09;5.00;;;2.00;;
55732;SDS011;41637;52.364;9.910;2023-07-31T10:10:40;5.90;;;2.40;;
55732;SDS011;41637;52.364;9.910;2023-07-31T10:13:09;2.90;;;1.80;;
55732;SDS011;41637;52.364;9.910;2023-07-31T10:15:36;3.90;;;1.60;;
55732;SDS011;41637;52.364;9.910;2023-07-31T10:18:05;3.80;;;1.90;;
55732;SDS011;41637;52.364;9.910;2023-07-31T10:20:33;3.10;;;1.60;;
55732;SDS011;41637;52.364;9.910;2023-07-31T10:23:00;5.00;;;1.70;;
55732;SDS011;41637;52.364;9.910;2023-07-31T10:25:28;3.10;;;1.70;;
55732;SDS011;41637;52.364;9.910;2023-07-31T10:27:56;3.30;;;1.50;;
55732;SDS011;41637;52.364;9.910;2023-07-31T10:30:27;2.90;;;1.60;;
55732;SDS011;41637;52.364;9.910;2023-07-31T10:32:58;2.80;;;1.70;;
55732;SDS011;41637;52.364;9.910;2023-07-31T10:35:26;3.00;;;1.80;;
55732;SDS011;41637;52.364;9.910;2023-07-31T10:37:53;5.00;;;1.70;;
55732;SDS011;41637;52.364;9.910;2023-07-31T10:40:24;2.90;;;1.80;;
55732;SDS011;41637;52.364;9.910;2023-07-31T10:42:56;4.20;;;1.80;;
55732;SDS011;41637;52.364;9.910;2023-07-31T10:45:33;2.80;;;1.80;;
55732;SDS011;41637;52.364;9.910;2023-07-31T10:48:14;3.90;;;1.90;;
55732;SDS011;41637;52.364;9.910;2023-07-31T10:50:47;2.90;;;1.80;;
55732;SDS011;41637;52.364;9.910;2023-07-31T10:53:22;3.50;;;2.10;;
55732;SDS011;41637;52.364;9.910;2023-07-31T10:55:59;3.60;;;2.00;;
55732;SDS011;41637;52.364;9.910;2023-07-31T10:58:27;3.60;;;1.90;;
55732;SDS011;41637;52.364;9.910;2023-07-31T11:00:58;3.90;;;2.00;;
55732;SDS011;41637;52.364;9.910;2023-07-31T11:03:27;3.30;;;1.80;;
55732;SDS011;41637;52.364;9.910;2023-07-31T11:06:08;3.00;;;1.80;;
55732;SDS011;41637;52.364;9.910;2023-07-31T11:08:36;3.90;;;2.00;;
55732;SDS011;41637;52.364;9.910;2023-07-31T11:11:14;3.30;;;1.90;;
55732;SDS011;41637;52.364;9.910;2023-07-31T11:13:44;4.60;;;2.00;;
55732;SDS011;41637;52.364;9.910;2023-07-31T11:16:24;2.70;;;1.70;;
55732;SDS011;41637;52.364;9.910;2023-07-31T11:18:52;3.60;;;1.80;;
55732;SDS011;41637;52.364;9.910;2023-07-31T11:21:22;4.70;;;1.70;;
55732;SDS011;41637;52.364;9.910;2023-07-31T11:23:51;4.20;;;1.90;;
55732;SDS011;41637;52.364;9.910;2023-07-31T11:26:20;4.10;;;1.70;;
55732;SDS011;41637;52.364;9.910;2023-07-31T11:28:47;3.40;;;1.60;;
55732;SDS011;41637;52.364;9.910;2023-07-31T11:31:15;3.20;;;1.70;;
55732;SDS011;41637;52.364;9.910;2023-07-31T11:33:43;3.90;;;1.40;;
55732;SDS011;41637;52.364;9.910;2023-07-31T11:36:19;4.80;;;1.60;;
55732;SDS011;41637;52.364;9.910;2023-07-31T11:38:47;3.20;;;1.50;;
55732;SDS011;41637;52.364;9.910;2023-07-31T11:41:15;3.20;;;1.70;;
55732;SDS011;41637;52.364;9.910;2023-07-31T11:43:45;3.60;;;1.70;;
55732;SDS011;41637;52.364;9.910;2023-07-31T11:46:14;3.60;;;1.90;;
55732;SDS011;41637;52.364;9.910;2023-07-31T11:48:41;3.50;;;1.90;;
55732;SDS011;41637;52.364;9.910;2023-07-31T11:51:10;3.90;;;1.80;;
55732;SDS011;41637;52.364;9.910;2023-07-31T11:53:43;3.80;;;2.00;;
55732;SDS011;41637;52.364;9.910;2023-07-31T11:56:13;2.90;;;1.90;;
55732;SDS011;41637;52.364;9.910;2023-07-31T11:58:42;2.80;;;1.70;;
55732;SDS011;41637;52.364;9.910;2023-07-31T12:01:13;2.30;;;1.60;;
55732;SDS011;41637;52.364;9.910;2023-07-31T12:03:43;2.60;;;1.50;;
55732;SDS011;41637;52.364;9.910;2023-07-31T12:06:11;4.60;;;1.60;;
55732;SDS011;41637;52.364;9.910;2023-07-31T12:08:38;2.60;;;1.60;;
55732;SDS011;41637;52.364;9.910;2023-07-31T12:11:05;4.10;;;1.90;;
55732;SDS011;41637;52.364;9.910;2023-07-31T12:13:35;2.70;;;1.50;;
55732;SDS011;41637;52.364;9.910;2023-07-31T12:16:03;2.90;;;1.70;;
55732;SDS011;41637;52.364;9.910;2023-07-31T12:18:34;3.20;;;1.70;;
55732;SDS011;41637;52.364;9.910;2023-07-31T12:21:05;2.70;;;1.30;;
55732;SDS011;41637;52.364;9.910;2023-07-31T12:23:34;4.00;;;1.40;;
55732;SDS011;41637;52.364;9.910;2023-07-31T12:28:40;2.10;;;1.20;;
55732;SDS011;41637;52.364;9.910;2023-07-31T12:31:18;3.20;;;1.40;;
55732;SDS011;41637;52.364;9.910;2023-07-31T12:33:47;2.70;;;1.20;;
55732;SDS011;41637;52.364;9.910;2023-07-31T12:36:18;2.20;;;1.10;;
55732;SDS011;41637;52.364;9.910;2023-07-31T12:38:47;2.80;;;1.10;;
55732;SDS011;41637;52.364;9.910;2023-07-31T12:41:15;2.80;;;1.20;;
55732;SDS011;41637;52.364;9.910;2023-07-31T12:43:43;2.60;;;0.90;;
55732;SDS011;41637;52.364;9.910;2023-07-31T12:46:11;2.30;;;1.00;;
55732;SDS011;41637;52.364;9.910;2023-07-31T12:48:39;4.30;;;1.00;;
55732;SDS011;41637;52.364;9.910;2023-07-31T12:51:06;2.20;;;1.20;;
55732;SDS011;41637;52.364;9.910;2023-07-31T12:53:34;3.30;;;1.10;;
55732;SDS011;41637;52.364;9.910;2023-07-31T12:56:01;2.10;;;0.90;;
55732;SDS011;41637;52.364;9.910;2023-07-31T12:58:28;1.80;;;0.90;;
55732;SDS011;41637;52.364;9.910;2023-07-31T13:00:55;1.90;;;1.00;;
55732;SDS011;41637;52.364;9.910;2023-07-31T13:03:22;2.70;;;0.80;;
55732;SDS011;41637;52.364;9.910;2023-07-31T13:05:50;2.20;;;0.80;;
55732;SDS011;41637;52.364;9.910;2023-07-31T13:08:18;2.60;;;0.70;;
55732;SDS011;41637;52.364;9.910;2023-07-31T13:10:45;1.30;;;0.60;;
55732;SDS011;41637;52.364;9.910;2023-07-31T13:13:12;1.40;;;0.70;;
55732;SDS011;41637;52.364;9.910;2023-07-31T13:15:39;1.70;;;1.00;;
55732;SDS011;41637;52.364;9.910;2023-07-31T13:18:05;2.10;;;0.70;;
55732;SDS011;41637;52.364;9.910;2023-07-31T13:20:32;1.60;;;0.60;;
55732;SDS011;41637;52.364;9.910;2023-07-31T13:22:59;1.30;;;0.70;;
55732;SDS011;41637;52.364;9.910;2023-07-31T13:25:26;3.90;;;0.80;;
55732;SDS011;41637;52.364;9.910;2023-07-31T13:27:53;1.10;;;0.60;;
55732;SDS011;41637;52.364;9.910;2023-07-31T13:30:21;3.20;;;1.00;;
55732;SDS011;41637;52.364;9.910;2023-07-31T13:32:48;1.30;;;0.70;;
55732;SDS011;41637;52.364;9.910;2023-07-31T13:35:14;2.00;;;0.70;;
55732;SDS011;41637;52.364;9.910;2023-07-31T13:37:41;1.70;;;0.70;;
55732;SDS011;41637;52.364;9.910;2023-07-31T13:40:08;1.20;;;0.60;;
55732;SDS011;41637;52.364;9.910;2023-07-31T13:42:35;1.50;;;0.70;;
55732;SDS011;41637;52.364;9.910;2023-07-31T13:45:01;1.40;;;0.70;;
55732;SDS011;41637;52.364;9.910;2023-07-31T13:47:33;1.30;;;0.60;;
55732;SDS011;41637;52.364;9.910;2023-07-31T13:50:00;2.00;;;0.70;;
55732;SDS011;41637;52.364;9.910;2023-07-31T13:52:28;1.40;;;0.60;;
55732;SDS011;41637;52.364;9.910;2023-07-31T13:54:55;3.40;;;0.80;;
55732;SDS011;41637;52.364;9.910;2023-07-31T13:57:22;1.60;;;0.70;;
55732;SDS011;41637;52.364;9.910;2023-07-31T13:59:50;1.90;;;0.70;;
55732;SDS011;41637;52.364;9.910;2023-07-31T14:02:16;1.50;;;0.70;;
55732;SDS011;41637;52.364;9.910;2023-07-31T14:04:43;2.10;;;0.60;;
55732;SDS011;41637;52.364;9.910;2023-07-31T14:07:11;2.00;;;0.60;;
55732;SDS011;41637;52.364;9.910;2023-07-31T14:09:38;0.70;;;0.30;;
55732;SDS011;41637;52.364;9.910;2023-07-31T14:12:04;1.30;;;0.60;;
55732;SDS011;41637;52.364;9.910;2023-07-31T14:14:32;0.70;;;0.30;;
55732;SDS011;41637;52.364;9.910;2023-07-31T14:17:00;1.70;;;0.50;;
55732;SDS011;41637;52.364;9.910;2023-07-31T14:19:28;1.40;;;0.50;;
55732;SDS011;41637;52.364;9.910;2023-07-31T14:21:57;1.20;;;0.60;;
55732;SDS011;41637;52.364;9.910;2023-07-31T14:24:36;1.00;;;0.40;;
55732;SDS011;41637;52.364;9.910;2023-07-31T14:27:03;1.90;;;0.50;;
55732;SDS011;41637;52.364;9.910;2023-07-31T14:29:30;1.30;;;0.60;;
55732;SDS011;41637;52.364;9.910;2023-07-31T14:31:57;1.90;;;0.60;;
55732;SDS011;41637;52.364;9.910;2023-07-31T14:34:26;1.90;;;0.80;;
55732;SDS011;41637;52.364;9.910;2023-07-31T14:36:53;1.60;;;0.90;;
55732;SDS011;41637;52.364;9.910;2023-07-31T14:39:19;2.30;;;1.00;;
55732;SDS011;41637;52.364;9.910;2023-07-31T14:41:46;2.30;;;0.90;;
55732;SDS011;41637;52.364;9.910;2023-07-31T14:44:14;2.10;;;0.80;;
55732;SDS011;41637;52.364;9.910;2023-07-31T14:46:41;1.40;;;1.00;;
55732;SDS011;41637;52.364;9.910;2023-07-31T14:49:08;2.90;;;1.10;;
55732;SDS011;41637;52.364;9.910;2023-07-31T14:51:36;2.30;;;1.50;;
55732;SDS011;41637;52.364;9.910;2023-07-31T14:54:02;3.70;;;1.40;;
55732;SDS011;41637;52.364;9.910;2023-07-31T14:56:29;2.20;;;1.50;;
55732;SDS011;41637;52.364;9.910;2023-07-31T14:58:57;4.00;;;1.50;;
55732;SDS011;41637;52.364;9.910;2023-07-31T15:01:24;2.50;;;1.40;;